Sault Sainte Marie, MI

7:07 AM EDT on August 20, 2014 (GMT -0400)
Drummond Island | Change Station
CLOSE
Current Station
Airport
Location: Drummond Island,
Elevation: 669 ft
Nearby Weather Stations

Elev 669 ft 46.01 °N, 83.74 °W | Updated 12 minutes ago

Fog
Fog
61 °F
Feels Like 61 °F
N
4
Wind Variable Wind from ENE

Today
High -- | Low -- °F
--% Chance of Precip.
Yesterday
High -- | Low -- °F
Precip. -- in
6:42 AM 8:38 PM
Waning Crescent, 22% visible
Pressure 29.77 in
Visibility 0.2 miles
Clouds Overcast 200 ft
Dew Point 61 °F
Humidity 100%
Rainfall 0.00 in
Snow Depth Not available.
UV 0 out of 12
Pollen 5.70 out of 12
Ozone Good
PM2.5 Good
Flu Activity Not available.
METAR KDRM 201055Z AUTO 06003KT 1/4SM FG OVC002 16/16 A2977 RMK AO2 T01600160

More Conditions Fewer Conditions

Pressure 29.77 in
Visibility 0.2 miles
Clouds Overcast 200 ft
Dew Point 61 °F
Humidity 100%
Rainfall 0.00 in
Snow Depth Not available.
UV 0 out of 12
Pollen 5.70 out of 12
Ozone Good
PM2.5 Good
Flu Activity Not available.
METAR KDRM 201055Z AUTO 06003KT 1/4SM FG OVC002 16/16 A2977 RMK AO2 T01600160

More Conditions Fewer Conditions

Nowcast | as of 7:00 am EDT on August 20, 2014

At 8 am...cloudy. Areas of fog. Scattered rain showers. Temperature 60. Light winds. At 10 am...cloudy. Areas of fog. Scattered rain showers. Temperature 61. East winds 6 mph. At 12 PM...cloudy. Scattered rain showers. Temperature 65. East winds 7 mph. At 2 PM...numerous rain showers and chance of thunderstorms. Temperature 68. East winds 6 mph.

×

10-Day Weather Forecast

Almanac

Astronomy

Aug. 20, 2014 Rise Set
Actual Time 6:42 AM EDT 8:38 PM EDT
Civil Twilight 6:09 AM EDT 9:10 PM EDT
Nautical Twilight 5:29 AM EDT 9:50 PM EDT
Astronomical Twilight 4:45 AM EDT 10:34 PM EDT
Moon 2:14 AM EDT 5:28 PM EDT
Length of Visible Light 15h 00m
Length of Day
13h 56m
Tomorrow will be 3m 2s shorter.
Waning Crescent, 22% of the Moon is Illuminated
Today
Waning Crescent
Aug 25
New
Sep 2
First Quarter
Sep 8
Full
Sep 15
Last Quarter

Today's Extremes

State Highs State Lows

Community

WunderPhotos

Upload Photos

1,745,606 photos uploaded!

Nearby

Air Quality

  Air Quality AQ Index Pollutant
Yesterday Good
OZONE
Yesterday Good
PM2.5
Current Good
PM2.5
Current Good
OZONE
Wednesday Good
OZONE
Wednesday Good
PM2.5
Thursday Good
OZONE
Thursday Good
PM2.5

Snow Depth

Station Depth Elevation
No new snow has been reported.

Earthquake Activity

City Distance Mag. Time & Date
No recent earthquake activity has been reported nearby.
Minimum magnitude displayed is 2.5.

Coastal Water Temperatures

Place Temperature
Rock Cut, MI 62.1 °F
S W Pier, MI 62.1 °F
West Neebish, MI 59.0 °F

Nearby Weather Stations